sensor_id;sensor_type;location;lat;lon;timestamp;temperature;humidity
4739;DHT22;2383;48.632;10.156;2022-08-03T00:02:37;24.00;99.50
4739;DHT22;2383;48.632;10.156;2022-08-03T00:06:39;23.90;98.70
4739;DHT22;2383;48.632;10.156;2022-08-03T00:10:40;24.00;98.40
4739;DHT22;2383;48.632;10.156;2022-08-03T00:14:42;24.00;98.30
4739;DHT22;2383;48.632;10.156;2022-08-03T00:18:44;23.90;98.50
4739;DHT22;2383;48.632;10.156;2022-08-03T00:22:54;23.90;98.20
4739;DHT22;2383;48.632;10.156;2022-08-03T00:26:56;23.30;98.90
4739;DHT22;2383;48.632;10.156;2022-08-03T00:30:57;23.20;99.30
4739;DHT22;2383;48.632;10.156;2022-08-03T00:34:59;23.50;99.00
4739;DHT22;2383;48.632;10.156;2022-08-03T00:39:08;23.60;98.50
4739;DHT22;2383;48.632;10.156;2022-08-03T00:43:10;23.40;98.70
4739;DHT22;2383;48.632;10.156;2022-08-03T00:47:12;23.50;98.70
4739;DHT22;2383;48.632;10.156;2022-08-03T00:51:14;23.60;98.30
4739;DHT22;2383;48.632;10.156;2022-08-03T00:55:16;23.40;98.60
4739;DHT22;2383;48.632;10.156;2022-08-03T00:59:18;23.40;98.40
4739;DHT22;2383;48.632;10.156;2022-08-03T01:03:20;23.20;98.90
4739;DHT22;2383;48.632;10.156;2022-08-03T01:07:41;22.70;99.50
4739;DHT22;2383;48.632;10.156;2022-08-03T01:12:31;22.40;99.90
4739;DHT22;2383;48.632;10.156;2022-08-03T01:16:30;22.20;99.90
4739;DHT22;2383;48.632;10.156;2022-08-03T01:20:39;22.20;99.90
4739;DHT22;2383;48.632;10.156;2022-08-03T01:24:55;21.90;99.90
4739;DHT22;2383;48.632;10.156;2022-08-03T01:33:05;21.70;99.90
4739;DHT22;2383;48.632;10.156;2022-08-03T01:37:10;21.70;99.90
4739;DHT22;2383;48.632;10.156;2022-08-03T01:41:24;21.20;99.90
4739;DHT22;2383;48.632;10.156;2022-08-03T01:45:30;21.50;99.90
4739;DHT22;2383;48.632;10.156;2022-08-03T01:49:38;20.70;99.90
4739;DHT22;2383;48.632;10.156;2022-08-03T01:53:41;21.30;99.90
4739;DHT22;2383;48.632;10.156;2022-08-03T01:57:46;21.40;99.90
4739;DHT22;2383;48.632;10.156;2022-08-03T02:02:07;21.10;99.90
4739;DHT22;2383;48.632;10.156;2022-08-03T02:06:33;21.30;99.90
4739;DHT22;2383;48.632;10.156;2022-08-03T02:10:58;21.10;99.90
4739;DHT22;2383;48.632;10.156;2022-08-03T02:15:01;20.80;99.90
4739;DHT22;2383;48.632;10.156;2022-08-03T02:19:04;20.70;99.90
4739;DHT22;2383;48.632;10.156;2022-08-03T02:23:07;20.60;99.90
4739;DHT22;2383;48.632;10.156;2022-08-03T02:27:29;20.20;99.90
4739;DHT22;2383;48.632;10.156;2022-08-03T02:31:36;20.30;99.90
4739;DHT22;2383;48.632;10.156;2022-08-03T02:35:39;19.80;99.90
4739;DHT22;2383;48.632;10.156;2022-08-03T02:39:42;20.50;99.90
4739;DHT22;2383;48.632;10.156;2022-08-03T02:43:47;21.00;99.90
4739;DHT22;2383;48.632;10.156;2022-08-03T02:48:08;20.80;99.90
4739;DHT22;2383;48.632;10.156;2022-08-03T02:52:13;20.40;99.90
4739;DHT22;2383;48.632;10.156;2022-08-03T02:56:18;20.60;99.90
4739;DHT22;2383;48.632;10.156;2022-08-03T03:00:20;21.10;99.90
4739;DHT22;2383;48.632;10.156;2022-08-03T03:04:30;21.30;99.90
4739;DHT22;2383;48.632;10.156;2022-08-03T03:08:59;21.00;99.90
4739;DHT22;2383;48.632;10.156;2022-08-03T03:13:02;21.50;99.90
4739;DHT22;2383;48.632;10.156;2022-08-03T03:17:05;21.00;99.90
4739;DHT22;2383;48.632;10.156;2022-08-03T03:21:09;21.60;99.90
4739;DHT22;2383;48.632;10.156;2022-08-03T03:25:11;21.40;99.90
4739;DHT22;2383;48.632;10.156;2022-08-03T03:29:13;20.70;99.90
4739;DHT22;2383;48.632;10.156;2022-08-03T03:33:16;21.00;99.90
4739;DHT22;2383;48.632;10.156;2022-08-03T03:37:18;21.40;99.90
4739;DHT22;2383;48.632;10.156;2022-08-03T03:41:20;21.20;99.90
4739;DHT22;2383;48.632;10.156;2022-08-03T03:45:22;21.30;99.90
4739;DHT22;2383;48.632;10.156;2022-08-03T03:49:25;20.60;99.90
4739;DHT22;2383;48.632;10.156;2022-08-03T03:53:29;20.50;99.90
4739;DHT22;2383;48.632;10.156;2022-08-03T03:57:33;21.20;99.90
4739;DHT22;2383;48.632;10.156;2022-08-03T04:01:35;20.70;99.90
4739;DHT22;2383;48.632;10.156;2022-08-03T04:05:37;20.50;99.90
4739;DHT22;2383;48.632;10.156;2022-08-03T04:09:58;20.10;99.90
4739;DHT22;2383;48.632;10.156;2022-08-03T04:18:27;20.20;99.90
4739;DHT22;2383;48.632;10.156;2022-08-03T04:22:32;19.80;99.90
4739;DHT22;2383;48.632;10.156;2022-08-03T04:26:37;19.10;99.90
4739;DHT22;2383;48.632;10.156;2022-08-03T04:30:40;20.10;99.90
4739;DHT22;2383;48.632;10.156;2022-08-03T04:34:48;20.40;99.90
4739;DHT22;2383;48.632;10.156;2022-08-03T04:39:17;20.30;99.90
4739;DHT22;2383;48.632;10.156;2022-08-03T04:43:23;20.70;99.90
4739;DHT22;2383;48.632;10.156;2022-08-03T04:47:26;20.80;99.90
4739;DHT22;2383;48.632;10.156;2022-08-03T04:51:28;21.00;99.90
4739;DHT22;2383;48.632;10.156;2022-08-03T04:55:32;21.40;99.90
4739;DHT22;2383;48.632;10.156;2022-08-03T04:59:34;21.50;99.90
4739;DHT22;2383;48.632;10.156;2022-08-03T05:03:39;21.60;99.90
4739;DHT22;2383;48.632;10.156;2022-08-03T05:07:53;21.50;99.90
4739;DHT22;2383;48.632;10.156;2022-08-03T05:11:55;21.70;99.90
4739;DHT22;2383;48.632;10.156;2022-08-03T05:15:57;22.00;99.90
4739;DHT22;2383;48.632;10.156;2022-08-03T05:19:59;22.00;99.90
4739;DHT22;2383;48.632;10.156;2022-08-03T05:24:01;22.20;99.90
4739;DHT22;2383;48.632;10.156;2022-08-03T05:28:05;22.40;99.90
4739;DHT22;2383;48.632;10.156;2022-08-03T05:32:07;22.10;99.90
4739;DHT22;2383;48.632;10.156;2022-08-03T05:36:09;22.30;99.90
4739;DHT22;2383;48.632;10.156;2022-08-03T05:40:11;22.60;99.90
4739;DHT22;2383;48.632;10.156;2022-08-03T05:44:13;22.30;99.90
4739;DHT22;2383;48.632;10.156;2022-08-03T05:48:19;22.50;99.90
4739;DHT22;2383;48.632;10.156;2022-08-03T05:52:23;22.60;99.90
4739;DHT22;2383;48.632;10.156;2022-08-03T05:56:25;23.00;99.90
4739;DHT22;2383;48.632;10.156;2022-08-03T06:00:27;23.10;99.90
4739;DHT22;2383;48.632;10.156;2022-08-03T06:04:29;22.30;99.90
4739;DHT22;2383;48.632;10.156;2022-08-03T06:08:31;22.50;99.90
4739;DHT22;2383;48.632;10.156;2022-08-03T06:12:32;22.90;99.90
4739;DHT22;2383;48.632;10.156;2022-08-03T06:16:37;22.70;99.90
4739;DHT22;2383;48.632;10.156;2022-08-03T06:20:39;22.50;99.90
4739;DHT22;2383;48.632;10.156;2022-08-03T06:24:42;23.00;99.90
4739;DHT22;2383;48.632;10.156;2022-08-03T06:28:54;23.40;99.90
4739;DHT22;2383;48.632;10.156;2022-08-03T06:32:56;23.50;99.90
4739;DHT22;2383;48.632;10.156;2022-08-03T06:36:58;23.70;99.90
4739;DHT22;2383;48.632;10.156;2022-08-03T06:41:02;23.90;99.90
4739;DHT22;2383;48.632;10.156;2022-08-03T06:45:05;24.00;99.90
4739;DHT22;2383;48.632;10.156;2022-08-03T06:49:07;24.10;99.90
4739;DHT22;2383;48.632;10.156;2022-08-03T06:53:09;24.70;99.90
4739;DHT22;2383;48.632;10.156;2022-08-03T06:57:21;25.00;99.70
4739;DHT22;2383;48.632;10.156;2022-08-03T07:01:23;25.00;99.40
4739;DHT22;2383;48.632;10.156;2022-08-03T07:05:25;25.20;99.40
4739;DHT22;2383;48.632;10.156;2022-08-03T07:09:27;25.30;98.70
4739;DHT22;2383;48.632;10.156;2022-08-03T07:13:29;25.20;98.70
4739;DHT22;2383;48.632;10.156;2022-08-03T07:17:32;25.80;98.30
4739;DHT22;2383;48.632;10.156;2022-08-03T07:21:35;26.10;98.00
4739;DHT22;2383;48.632;10.156;2022-08-03T07:25:36;26.40;97.10
4739;DHT22;2383;48.632;10.156;2022-08-03T07:29:38;26.60;96.60
4739;DHT22;2383;48.632;10.156;2022-08-03T07:33:40;26.70;95.70
4739;DHT22;2383;48.632;10.156;2022-08-03T07:37:42;26.50;95.60
4739;DHT22;2383;48.632;10.156;2022-08-03T07:41:55;26.50;95.40
4739;DHT22;2383;48.632;10.156;2022-08-03T07:45:57;26.00;96.20
4739;DHT22;2383;48.632;10.156;2022-08-03T07:49:58;26.50;95.70
4739;DHT22;2383;48.632;10.156;2022-08-03T07:54:00;26.80;95.20
4739;DHT22;2383;48.632;10.156;2022-08-03T07:58:04;26.80;94.00
4739;DHT22;2383;48.632;10.156;2022-08-03T08:02:06;27.00;93.80
4739;DHT22;2383;48.632;10.156;2022-08-03T08:06:08;27.30;93.60
4739;DHT22;2383;48.632;10.156;2022-08-03T08:10:11;27.30;93.30
4739;DHT22;2383;48.632;10.156;2022-08-03T08:14:13;27.40;92.90
4739;DHT22;2383;48.632;10.156;2022-08-03T08:18:15;27.50;93.10
4739;DHT22;2383;48.632;10.156;2022-08-03T08:22:17;27.70;92.60
4739;DHT22;2383;48.632;10.156;2022-08-03T08:26:30;28.00;92.00
4739;DHT22;2383;48.632;10.156;2022-08-03T08:30:32;27.80;92.50
4739;DHT22;2383;48.632;10.156;2022-08-03T08:34:35;27.70;91.80
4739;DHT22;2383;48.632;10.156;2022-08-03T08:38:37;27.40;92.80
4739;DHT22;2383;48.632;10.156;2022-08-03T08:42:43;27.70;91.70
4739;DHT22;2383;48.632;10.156;2022-08-03T08:47:01;28.10;91.70
4739;DHT22;2383;48.632;10.156;2022-08-03T08:51:04;28.40;91.30
4739;DHT22;2383;48.632;10.156;2022-08-03T08:55:08;28.20;90.80
4739;DHT22;2383;48.632;10.156;2022-08-03T08:59:11;28.40;91.10
4739;DHT22;2383;48.632;10.156;2022-08-03T09:03:13;28.40;90.80
4739;DHT22;2383;48.632;10.156;2022-08-03T09:07:29;28.60;90.90
4739;DHT22;2383;48.632;10.156;2022-08-03T09:11:32;28.60;90.70
4739;DHT22;2383;48.632;10.156;2022-08-03T09:16:11;28.80;90.50
4739;DHT22;2383;48.632;10.156;2022-08-03T09:20:13;28.80;90.00
4739;DHT22;2383;48.632;10.156;2022-08-03T09:24:20;28.90;89.80
4739;DHT22;2383;48.632;10.156;2022-08-03T09:28:42;28.80;90.30
4739;DHT22;2383;48.632;10.156;2022-08-03T09:33:06;29.20;90.20
4739;DHT22;2383;48.632;10.156;2022-08-03T09:37:13;29.30;90.20
4739;DHT22;2383;48.632;10.156;2022-08-03T09:41:17;29.00;90.60
4739;DHT22;2383;48.632;10.156;2022-08-03T09:45:26;29.20;86.50
4739;DHT22;2383;48.632;10.156;2022-08-03T09:49:28;29.30;85.80
4739;DHT22;2383;48.632;10.156;2022-08-03T09:53:41;29.20;85.30
4739;DHT22;2383;48.632;10.156;2022-08-03T09:58:06;29.30;84.30
4739;DHT22;2383;48.632;10.156;2022-08-03T10:02:22;29.90;83.70
4739;DHT22;2383;48.632;10.156;2022-08-03T10:06:24;30.00;80.30
4739;DHT22;2383;48.632;10.156;2022-08-03T10:10:44;29.80;80.50
4739;DHT22;2383;48.632;10.156;2022-08-03T10:14:46;29.70;79.60
4739;DHT22;2383;48.632;10.156;2022-08-03T10:18:48;29.70;80.50
4739;DHT22;2383;48.632;10.156;2022-08-03T10:22:51;29.70;78.10
4739;DHT22;2383;48.632;10.156;2022-08-03T10:27:00;29.60;78.00
4739;DHT22;2383;48.632;10.156;2022-08-03T10:31:04;29.90;80.10
4739;DHT22;2383;48.632;10.156;2022-08-03T10:35:12;30.00;74.90
4739;DHT22;2383;48.632;10.156;2022-08-03T10:39:23;30.00;77.10
4739;DHT22;2383;48.632;10.156;2022-08-03T10:43:44;30.00;78.30
4739;DHT22;2383;48.632;10.156;2022-08-03T10:47:50;30.20;74.30
4739;DHT22;2383;48.632;10.156;2022-08-03T10:51:53;30.70;72.00
4739;DHT22;2383;48.632;10.156;2022-08-03T10:55:55;30.80;73.80
4739;DHT22;2383;48.632;10.156;2022-08-03T11:00:25;30.40;72.80
4739;DHT22;2383;48.632;10.156;2022-08-03T11:04:28;30.50;72.80
4739;DHT22;2383;48.632;10.156;2022-08-03T11:08:33;30.90;68.30
4739;DHT22;2383;48.632;10.156;2022-08-03T11:12:38;30.80;69.50
4739;DHT22;2383;48.632;10.156;2022-08-03T11:16:48;30.60;71.90
4739;DHT22;2383;48.632;10.156;2022-08-03T11:20:54;30.70;75.10
4739;DHT22;2383;48.632;10.156;2022-08-03T11:24:56;31.00;74.60
4739;DHT22;2383;48.632;10.156;2022-08-03T11:29:27;30.70;71.20
4739;DHT22;2383;48.632;10.156;2022-08-03T11:33:29;30.50;71.80
4739;DHT22;2383;48.632;10.156;2022-08-03T11:37:32;30.60;74.20
4739;DHT22;2383;48.632;10.156;2022-08-03T11:41:34;30.70;73.30
4739;DHT22;2383;48.632;10.156;2022-08-03T11:46:02;31.00;74.80
4739;DHT22;2383;48.632;10.156;2022-08-03T11:50:05;30.30;73.50
4739;DHT22;2383;48.632;10.156;2022-08-03T11:54:07;30.70;75.50
4739;DHT22;2383;48.632;10.156;2022-08-03T11:58:15;30.90;77.10
4739;DHT22;2383;48.632;10.156;2022-08-03T12:02:38;31.20;75.10
4739;DHT22;2383;48.632;10.156;2022-08-03T12:06:39;31.50;75.40
4739;DHT22;2383;48.632;10.156;2022-08-03T12:10:57;31.10;74.30
4739;DHT22;2383;48.632;10.156;2022-08-03T12:15:02;31.60;75.00
4739;DHT22;2383;48.632;10.156;2022-08-03T12:19:05;30.60;75.30
4739;DHT22;2383;48.632;10.156;2022-08-03T12:23:22;30.60;74.60
4739;DHT22;2383;48.632;10.156;2022-08-03T12:27:24;31.00;74.50
4739;DHT22;2383;48.632;10.156;2022-08-03T12:31:27;31.40;74.00
4739;DHT22;2383;48.632;10.156;2022-08-03T12:35:29;30.80;75.00
4739;DHT22;2383;48.632;10.156;2022-08-03T12:39:31;30.20;74.30
4739;DHT22;2383;48.632;10.156;2022-08-03T12:43:33;30.90;74.60
4739;DHT22;2383;48.632;10.156;2022-08-03T12:47:54;31.30;74.60
4739;DHT22;2383;48.632;10.156;2022-08-03T12:51:58;31.40;74.00
4739;DHT22;2383;48.632;10.156;2022-08-03T12:56:07;31.30;70.90
4739;DHT22;2383;48.632;10.156;2022-08-03T13:00:10;31.30;71.60
4739;DHT22;2383;48.632;10.156;2022-08-03T13:04:34;31.60;71.00
4739;DHT22;2383;48.632;10.156;2022-08-03T13:08:36;31.80;69.80
4739;DHT22;2383;48.632;10.156;2022-08-03T13:12:48;31.80;71.70
4739;DHT22;2383;48.632;10.156;2022-08-03T13:16:50;31.80;70.90
4739;DHT22;2383;48.632;10.156;2022-08-03T13:20:52;32.10;70.70
4739;DHT22;2383;48.632;10.156;2022-08-03T13:24:55;32.30;69.30
4739;DHT22;2383;48.632;10.156;2022-08-03T13:28:57;32.00;69.70
4739;DHT22;2383;48.632;10.156;2022-08-03T13:32:59;32.40;71.70
4739;DHT22;2383;48.632;10.156;2022-08-03T13:37:01;32.00;69.60
4739;DHT22;2383;48.632;10.156;2022-08-03T13:41:11;32.30;67.40
4739;DHT22;2383;48.632;10.156;2022-08-03T13:45:16;31.30;66.80
4739;DHT22;2383;48.632;10.156;2022-08-03T13:49:18;31.50;67.80
4739;DHT22;2383;48.632;10.156;2022-08-03T13:53:20;32.20;66.40
4739;DHT22;2383;48.632;10.156;2022-08-03T13:57:22;32.20;66.40
4739;DHT22;2383;48.632;10.156;2022-08-03T14:01:43;31.90;68.20
4739;DHT22;2383;48.632;10.156;2022-08-03T14:05:56;31.40;64.50
4739;DHT22;2383;48.632;10.156;2022-08-03T14:09:58;31.90;64.90
4739;DHT22;2383;48.632;10.156;2022-08-03T14:13:59;31.10;64.90
4739;DHT22;2383;48.632;10.156;2022-08-03T14:18:01;31.90;65.00
4739;DHT22;2383;48.632;10.156;2022-08-03T14:22:03;32.40;65.70
4739;DHT22;2383;48.632;10.156;2022-08-03T14:26:08;32.40;67.40
4739;DHT22;2383;48.632;10.156;2022-08-03T14:30:10;32.60;66.20
4739;DHT22;2383;48.632;10.156;2022-08-03T14:34:12;32.60;65.10
4739;DHT22;2383;48.632;10.156;2022-08-03T14:38:14;32.60;63.80
4739;DHT22;2383;48.632;10.156;2022-08-03T14:42:16;32.50;65.70
4739;DHT22;2383;48.632;10.156;2022-08-03T14:46:18;32.40;64.20
4739;DHT22;2383;48.632;10.156;2022-08-03T14:50:20;32.50;63.60
4739;DHT22;2383;48.632;10.156;2022-08-03T14:54:42;32.40;64.90
4739;DHT22;2383;48.632;10.156;2022-08-03T14:58:45;32.40;64.60
4739;DHT22;2383;48.632;10.156;2022-08-03T15:02:47;32.40;64.10
4739;DHT22;2383;48.632;10.156;2022-08-03T15:06:52;32.40;62.80
4739;DHT22;2383;48.632;10.156;2022-08-03T15:10:54;32.60;62.60
4739;DHT22;2383;48.632;10.156;2022-08-03T15:14:56;32.70;59.50
4739;DHT22;2383;48.632;10.156;2022-08-03T15:18:57;32.40;63.10
4739;DHT22;2383;48.632;10.156;2022-08-03T15:23:01;32.50;60.90
4739;DHT22;2383;48.632;10.156;2022-08-03T15:27:03;32.40;59.20
4739;DHT22;2383;48.632;10.156;2022-08-03T15:31:13;32.40;60.10
4739;DHT22;2383;48.632;10.156;2022-08-03T15:35:22;32.20;60.50
4739;DHT22;2383;48.632;10.156;2022-08-03T15:39:32;32.30;60.70
4739;DHT22;2383;48.632;10.156;2022-08-03T15:43:53;32.40;60.90
4739;DHT22;2383;48.632;10.156;2022-08-03T15:47:55;32.50;59.30
4739;DHT22;2383;48.632;10.156;2022-08-03T15:51:57;32.50;60.00
4739;DHT22;2383;48.632;10.156;2022-08-03T15:55:59;32.60;59.60
4739;DHT22;2383;48.632;10.156;2022-08-03T16:00:06;32.70;59.40
4739;DHT22;2383;48.632;10.156;2022-08-03T16:04:11;32.90;62.60
4739;DHT22;2383;48.632;10.156;2022-08-03T16:08:13;33.10;61.60
4739;DHT22;2383;48.632;10.156;2022-08-03T16:12:15;33.20;58.60
4739;DHT22;2383;48.632;10.156;2022-08-03T16:16:17;33.10;60.70
4739;DHT22;2383;48.632;10.156;2022-08-03T16:20:19;33.00;60.50
4739;DHT22;2383;48.632;10.156;2022-08-03T16:24:35;33.00;62.30
4739;DHT22;2383;48.632;10.156;2022-08-03T16:28:39;33.00;61.20
4739;DHT22;2383;48.632;10.156;2022-08-03T16:32:43;33.00;60.70
4739;DHT22;2383;48.632;10.156;2022-08-03T16:36:44;32.60;60.70
4739;DHT22;2383;48.632;10.156;2022-08-03T16:40:47;32.60;62.00
4739;DHT22;2383;48.632;10.156;2022-08-03T16:44:52;33.00;61.20
4739;DHT22;2383;48.632;10.156;2022-08-03T16:48:54;33.00;59.80
4739;DHT22;2383;48.632;10.156;2022-08-03T16:52:56;33.00;61.50
4739;DHT22;2383;48.632;10.156;2022-08-03T16:56:58;33.30;61.70
4739;DHT22;2383;48.632;10.156;2022-08-03T17:01:01;33.30;61.00
4739;DHT22;2383;48.632;10.156;2022-08-03T17:05:24;33.00;59.20
4739;DHT22;2383;48.632;10.156;2022-08-03T17:09:44;33.30;58.50
4739;DHT22;2383;48.632;10.156;2022-08-03T17:13:46;33.60;58.60
4739;DHT22;2383;48.632;10.156;2022-08-03T17:18:03;33.70;59.50
4739;DHT22;2383;48.632;10.156;2022-08-03T17:26:18;33.30;60.50
4739;DHT22;2383;48.632;10.156;2022-08-03T17:30:34;33.20;61.80
4739;DHT22;2383;48.632;10.156;2022-08-03T17:34:55;33.20;62.60
4739;DHT22;2383;48.632;10.156;2022-08-03T17:38:58;33.00;63.60
4739;DHT22;2383;48.632;10.156;2022-08-03T17:43:02;33.20;64.00
4739;DHT22;2383;48.632;10.156;2022-08-03T17:47:28;32.90;65.10
4739;DHT22;2383;48.632;10.156;2022-08-03T17:51:57;32.70;65.20
4739;DHT22;2383;48.632;10.156;2022-08-03T18:00:46;32.10;65.60
4739;DHT22;2383;48.632;10.156;2022-08-03T18:05:27;32.10;67.40
4739;DHT22;2383;48.632;10.156;2022-08-03T18:09:49;31.90;67.70
4739;DHT22;2383;48.632;10.156;2022-08-03T18:14:14;31.90;70.60
4739;DHT22;2383;48.632;10.156;2022-08-03T18:18:18;31.80;72.30
4739;DHT22;2383;48.632;10.156;2022-08-03T18:22:43;31.60;73.80
4739;DHT22;2383;48.632;10.156;2022-08-03T18:26:48;31.50;74.90
4739;DHT22;2383;48.632;10.156;2022-08-03T18:30:51;31.40;77.30
4739;DHT22;2383;48.632;10.156;2022-08-03T18:35:14;31.10;78.50
4739;DHT22;2383;48.632;10.156;2022-08-03T18:39:17;30.80;80.20
4739;DHT22;2383;48.632;10.156;2022-08-03T18:43:20;30.40;81.60
4739;DHT22;2383;48.632;10.156;2022-08-03T18:47:56;29.20;82.40
4739;DHT22;2383;48.632;10.156;2022-08-03T18:52:03;28.90;82.50
4739;DHT22;2383;48.632;10.156;2022-08-03T19:05:07;28.40;86.70
4739;DHT22;2383;48.632;10.156;2022-08-03T19:09:29;28.90;87.00
4739;DHT22;2383;48.632;10.156;2022-08-03T19:13:43;29.10;86.90
4739;DHT22;2383;48.632;10.156;2022-08-03T19:18:09;28.70;85.80
4739;DHT22;2383;48.632;10.156;2022-08-03T19:22:17;28.60;88.20
4739;DHT22;2383;48.632;10.156;2022-08-03T19:26:24;28.20;89.30
4739;DHT22;2383;48.632;10.156;2022-08-03T19:30:34;28.10;88.60
4739;DHT22;2383;48.632;10.156;2022-08-03T19:34:40;28.20;88.00
4739;DHT22;2383;48.632;10.156;2022-08-03T19:38:50;28.10;87.70
4739;DHT22;2383;48.632;10.156;2022-08-03T19:43:08;28.10;86.40
4739;DHT22;2383;48.632;10.156;2022-08-03T19:47:14;28.20;85.90
4739;DHT22;2383;48.632;10.156;2022-08-03T19:51:19;27.00;88.70
4739;DHT22;2383;48.632;10.156;2022-08-03T19:55:43;27.10;88.70
4739;DHT22;2383;48.632;10.156;2022-08-03T19:59:50;26.50;90.30
4739;DHT22;2383;48.632;10.156;2022-08-03T20:03:53;27.10;90.20
4739;DHT22;2383;48.632;10.156;2022-08-03T20:07:59;26.40;90.90
4739;DHT22;2383;48.632;10.156;2022-08-03T20:12:02;26.80;91.00
4739;DHT22;2383;48.632;10.156;2022-08-03T20:16:07;26.10;91.20
4739;DHT22;2383;48.632;10.156;2022-08-03T20:20:12;25.90;91.70
4739;DHT22;2383;48.632;10.156;2022-08-03T20:24:40;25.80;92.10
4739;DHT22;2383;48.632;10.156;2022-08-03T20:28:46;25.60;92.00
4739;DHT22;2383;48.632;10.156;2022-08-03T20:32:51;25.40;92.00
4739;DHT22;2383;48.632;10.156;2022-08-03T20:36:53;25.10;92.10
4739;DHT22;2383;48.632;10.156;2022-08-03T20:40:55;25.20;91.70
4739;DHT22;2383;48.632;10.156;2022-08-03T20:44:59;25.30;91.70
4739;DHT22;2383;48.632;10.156;2022-08-03T20:49:07;25.40;91.70
4739;DHT22;2383;48.632;10.156;2022-08-03T20:53:09;25.10;91.80
4739;DHT22;2383;48.632;10.156;2022-08-03T20:57:12;24.80;92.20
4739;DHT22;2383;48.632;10.156;2022-08-03T21:01:15;24.90;92.30
4739;DHT22;2383;48.632;10.156;2022-08-03T21:05:29;24.60;92.50
4739;DHT22;2383;48.632;10.156;2022-08-03T21:09:54;24.90;92.10
4739;DHT22;2383;48.632;10.156;2022-08-03T21:14:33;25.40;91.70
4739;DHT22;2383;48.632;10.156;2022-08-03T21:18:44;25.50;91.20
4739;DHT22;2383;48.632;10.156;2022-08-03T21:22:56;25.60;91.70
4739;DHT22;2383;48.632;10.156;2022-08-03T21:26:59;25.00;92.30
4739;DHT22;2383;48.632;10.156;2022-08-03T21:31:01;25.00;91.80
4739;DHT22;2383;48.632;10.156;2022-08-03T21:35:04;25.00;92.30
4739;DHT22;2383;48.632;10.156;2022-08-03T21:39:09;25.20;92.20
4739;DHT22;2383;48.632;10.156;2022-08-03T21:43:11;25.30;92.10
4739;DHT22;2383;48.632;10.156;2022-08-03T21:47:15;25.60;91.40
4739;DHT22;2383;48.632;10.156;2022-08-03T21:51:18;25.60;91.40
4739;DHT22;2383;48.632;10.156;2022-08-03T21:55:25;25.70;91.40
4739;DHT22;2383;48.632;10.156;2022-08-03T21:59:34;25.50;91.20
4739;DHT22;2383;48.632;10.156;2022-08-03T22:03:38;25.60;90.90
4739;DHT22;2383;48.632;10.156;2022-08-03T22:07:54;25.60;91.40
4739;DHT22;2383;48.632;10.156;2022-08-03T22:11:57;25.40;91.70
4739;DHT22;2383;48.632;10.156;2022-08-03T22:15:58;25.20;92.00
4739;DHT22;2383;48.632;10.156;2022-08-03T22:20:14;25.30;91.80
4739;DHT22;2383;48.632;10.156;2022-08-03T22:24:18;25.40;91.80
4739;DHT22;2383;48.632;10.156;2022-08-03T22:28:34;25.30;91.70
4739;DHT22;2383;48.632;10.156;2022-08-03T22:32:37;25.60;91.50
4739;DHT22;2383;48.632;10.156;2022-08-03T22:36:40;25.10;91.90
4739;DHT22;2383;48.632;10.156;2022-08-03T22:40:43;25.00;91.90
4739;DHT22;2383;48.632;10.156;2022-08-03T22:44:48;24.10;92.60
4739;DHT22;2383;48.632;10.156;2022-08-03T22:48:50;23.80;92.40
4739;DHT22;2383;48.632;10.156;2022-08-03T22:52:53;23.30;93.10
4739;DHT22;2383;48.632;10.156;2022-08-03T22:56:56;23.20;93.80
4739;DHT22;2383;48.632;10.156;2022-08-03T23:01:07;23.80;93.40
4739;DHT22;2383;48.632;10.156;2022-08-03T23:05:15;24.20;93.30
4739;DHT22;2383;48.632;10.156;2022-08-03T23:09:37;24.50;93.10
4739;DHT22;2383;48.632;10.156;2022-08-03T23:13:52;24.60;92.70
4739;DHT22;2383;48.632;10.156;2022-08-03T23:17:56;24.80;92.00
4739;DHT22;2383;48.632;10.156;2022-08-03T23:21:59;24.70;92.50
4739;DHT22;2383;48.632;10.156;2022-08-03T23:26:06;24.40;92.80
4739;DHT22;2383;48.632;10.156;2022-08-03T23:30:09;24.40;92.80
4739;DHT22;2383;48.632;10.156;2022-08-03T23:34:13;24.40;92.80
4739;DHT22;2383;48.632;10.156;2022-08-03T23:38:35;23.90;93.00
4739;DHT22;2383;48.632;10.156;2022-08-03T23:42:38;23.90;93.40
4739;DHT22;2383;48.632;10.156;2022-08-03T23:46:41;23.30;93.90
4739;DHT22;2383;48.632;10.156;2022-08-03T23:51:20;23.50;93.60
